sensor_id;sensor_type;location;lat;lon;timestamp;P1;durP1;ratioP1;P2;durP2;ratioP2
74541;SDS011;63015;45.378;20.360;2023-04-29T00:00:49;13.95;;;5.90;;
74541;SDS011;63015;45.378;20.360;2023-04-29T00:02:49;10.23;;;5.80;;
74541;SDS011;63015;45.378;20.360;2023-04-29T00:04:50;6.55;;;3.45;;
74541;SDS011;63015;45.378;20.360;2023-04-29T00:06:50;9.98;;;5.57;;
74541;SDS011;63015;45.378;20.360;2023-04-29T00:08:51;12.13;;;4.88;;
74541;SDS011;63015;45.378;20.360;2023-04-29T00:10:52;12.05;;;4.93;;
74541;SDS011;63015;45.378;20.360;2023-04-29T00:12:53;14.07;;;6.47;;
74541;SDS011;63015;45.378;20.360;2023-04-29T00:14:53;8.48;;;5.22;;
74541;SDS011;63015;45.378;20.360;2023-04-29T00:16:54;11.00;;;6.13;;
74541;SDS011;63015;45.378;20.360;2023-04-29T00:18:55;7.53;;;5.10;;
74541;SDS011;63015;45.378;20.360;2023-04-29T00:20:55;11.50;;;6.50;;
74541;SDS011;63015;45.378;20.360;2023-04-29T00:22:56;8.88;;;4.95;;
74541;SDS011;63015;45.378;20.360;2023-04-29T00:24:56;12.20;;;5.45;;
74541;SDS011;63015;45.378;20.360;2023-04-29T00:26:57;10.85;;;4.53;;
74541;SDS011;63015;45.378;20.360;2023-04-29T00:28:58;8.68;;;5.70;;
74541;SDS011;63015;45.378;20.360;2023-04-29T00:30:59;10.27;;;4.30;;
74541;SDS011;63015;45.378;20.360;2023-04-29T00:33:00;7.18;;;3.80;;
74541;SDS011;63015;45.378;20.360;2023-04-29T00:35:01;8.07;;;3.13;;
74541;SDS011;63015;45.378;20.360;2023-04-29T00:37:01;8.30;;;3.50;;
74541;SDS011;63015;45.378;20.360;2023-04-29T00:39:03;6.75;;;3.70;;
74541;SDS011;63015;45.378;20.360;2023-04-29T00:41:03;10.15;;;4.93;;
74541;SDS011;63015;45.378;20.360;2023-04-29T00:43:05;11.32;;;4.95;;
74541;SDS011;63015;45.378;20.360;2023-04-29T00:45:06;12.48;;;6.00;;
74541;SDS011;63015;45.378;20.360;2023-04-29T00:47:12;10.15;;;6.18;;
74541;SDS011;63015;45.378;20.360;2023-04-29T00:49:13;10.95;;;5.32;;
74541;SDS011;63015;45.378;20.360;2023-04-29T00:51:15;11.43;;;4.40;;
74541;SDS011;63015;45.378;20.360;2023-04-29T00:53:17;9.23;;;5.68;;
74541;SDS011;63015;45.378;20.360;2023-04-29T00:55:17;11.80;;;7.00;;
74541;SDS011;63015;45.378;20.360;2023-04-29T00:57:18;12.35;;;6.53;;
74541;SDS011;63015;45.378;20.360;2023-04-29T00:59:20;8.70;;;5.15;;
74541;SDS011;63015;45.378;20.360;2023-04-29T01:01:21;8.40;;;4.00;;
74541;SDS011;63015;45.378;20.360;2023-04-29T01:03:23;7.20;;;3.95;;
74541;SDS011;63015;45.378;20.360;2023-04-29T01:05:24;8.00;;;4.38;;
74541;SDS011;63015;45.378;20.360;2023-04-29T01:07:33;10.70;;;3.83;;
74541;SDS011;63015;45.378;20.360;2023-04-29T01:14:32;7.97;;;4.18;;
74541;SDS011;63015;45.378;20.360;2023-04-29T01:16:37;10.05;;;3.85;;
74541;SDS011;63015;45.378;20.360;2023-04-29T01:18:52;11.05;;;4.50;;
74541;SDS011;63015;45.378;20.360;2023-04-29T01:21:00;11.77;;;5.28;;
74541;SDS011;63015;45.378;20.360;2023-04-29T01:23:01;11.60;;;4.07;;
74541;SDS011;63015;45.378;20.360;2023-04-29T01:25:03;10.10;;;4.72;;
74541;SDS011;63015;45.378;20.360;2023-04-29T01:27:13;8.13;;;4.35;;
74541;SDS011;63015;45.378;20.360;2023-04-29T01:31:40;9.40;;;4.72;;
74541;SDS011;63015;45.378;20.360;2023-04-29T01:38:46;10.80;;;5.40;;
74541;SDS011;63015;45.378;20.360;2023-04-29T01:40:58;8.32;;;3.78;;
74541;SDS011;63015;45.378;20.360;2023-04-29T01:43:09;8.68;;;3.92;;
74541;SDS011;63015;45.378;20.360;2023-04-29T01:45:14;9.02;;;4.63;;
74541;SDS011;63015;45.378;20.360;2023-04-29T01:47:20;11.27;;;3.95;;
74541;SDS011;63015;45.378;20.360;2023-04-29T01:49:25;7.47;;;4.13;;
74541;SDS011;63015;45.378;20.360;2023-04-29T01:51:27;8.98;;;3.65;;
74541;SDS011;63015;45.378;20.360;2023-04-29T01:53:29;9.32;;;3.70;;
74541;SDS011;63015;45.378;20.360;2023-04-29T01:55:29;10.88;;;4.13;;
74541;SDS011;63015;45.378;20.360;2023-04-29T01:57:44;8.75;;;4.75;;
74541;SDS011;63015;45.378;20.360;2023-04-29T02:00:05;7.32;;;3.63;;
74541;SDS011;63015;45.378;20.360;2023-04-29T02:02:13;9.70;;;4.05;;
74541;SDS011;63015;45.378;20.360;2023-04-29T02:04:24;8.30;;;3.65;;
74541;SDS011;63015;45.378;20.360;2023-04-29T02:06:25;8.20;;;3.55;;
74541;SDS011;63015;45.378;20.360;2023-04-29T02:08:31;8.25;;;3.80;;
74541;SDS011;63015;45.378;20.360;2023-04-29T02:10:33;7.28;;;3.15;;
74541;SDS011;63015;45.378;20.360;2023-04-29T02:13:02;7.65;;;3.35;;
74541;SDS011;63015;45.378;20.360;2023-04-29T02:15:03;7.97;;;3.15;;
74541;SDS011;63015;45.378;20.360;2023-04-29T02:17:04;7.68;;;3.58;;
74541;SDS011;63015;45.378;20.360;2023-04-29T02:19:06;7.63;;;3.65;;
74541;SDS011;63015;45.378;20.360;2023-04-29T02:21:06;7.18;;;3.65;;
74541;SDS011;63015;45.378;20.360;2023-04-29T02:23:08;9.00;;;3.95;;
74541;SDS011;63015;45.378;20.360;2023-04-29T02:25:10;7.60;;;3.58;;
74541;SDS011;63015;45.378;20.360;2023-04-29T02:27:11;7.75;;;3.38;;
74541;SDS011;63015;45.378;20.360;2023-04-29T02:29:11;6.65;;;3.25;;
74541;SDS011;63015;45.378;20.360;2023-04-29T02:31:12;9.15;;;3.75;;
74541;SDS011;63015;45.378;20.360;2023-04-29T02:33:12;9.50;;;3.60;;
74541;SDS011;63015;45.378;20.360;2023-04-29T02:35:13;6.45;;;3.60;;
74541;SDS011;63015;45.378;20.360;2023-04-29T02:37:14;9.43;;;4.20;;
74541;SDS011;63015;45.378;20.360;2023-04-29T02:39:15;9.75;;;3.58;;
74541;SDS011;63015;45.378;20.360;2023-04-29T02:41:16;8.90;;;3.22;;
74541;SDS011;63015;45.378;20.360;2023-04-29T02:43:17;7.93;;;3.10;;
74541;SDS011;63015;45.378;20.360;2023-04-29T02:45:18;6.78;;;3.28;;
74541;SDS011;63015;45.378;20.360;2023-04-29T02:47:19;8.57;;;3.60;;
74541;SDS011;63015;45.378;20.360;2023-04-29T02:49:19;9.88;;;3.13;;
74541;SDS011;63015;45.378;20.360;2023-04-29T02:51:20;7.30;;;2.60;;
74541;SDS011;63015;45.378;20.360;2023-04-29T02:53:21;9.50;;;3.47;;
74541;SDS011;63015;45.378;20.360;2023-04-29T02:55:22;7.47;;;3.13;;
74541;SDS011;63015;45.378;20.360;2023-04-29T02:57:23;7.97;;;3.17;;
74541;SDS011;63015;45.378;20.360;2023-04-29T02:59:24;8.18;;;3.15;;
74541;SDS011;63015;45.378;20.360;2023-04-29T03:01:24;9.35;;;3.75;;
74541;SDS011;63015;45.378;20.360;2023-04-29T03:03:25;7.28;;;3.33;;
74541;SDS011;63015;45.378;20.360;2023-04-29T03:05:26;6.25;;;3.03;;
74541;SDS011;63015;45.378;20.360;2023-04-29T03:07:27;5.63;;;2.50;;
74541;SDS011;63015;45.378;20.360;2023-04-29T03:09:29;6.32;;;2.40;;
74541;SDS011;63015;45.378;20.360;2023-04-29T03:11:30;6.28;;;2.65;;
74541;SDS011;63015;45.378;20.360;2023-04-29T03:13:31;3.30;;;1.55;;
74541;SDS011;63015;45.378;20.360;2023-04-29T03:15:31;5.95;;;2.67;;
74541;SDS011;63015;45.378;20.360;2023-04-29T03:17:32;8.05;;;3.42;;
74541;SDS011;63015;45.378;20.360;2023-04-29T03:19:34;7.95;;;2.70;;
74541;SDS011;63015;45.378;20.360;2023-04-29T03:21:34;6.53;;;3.22;;
74541;SDS011;63015;45.378;20.360;2023-04-29T03:23:35;5.07;;;2.70;;
74541;SDS011;63015;45.378;20.360;2023-04-29T03:27:40;10.57;;;3.08;;
74541;SDS011;63015;45.378;20.360;2023-04-29T03:29:41;6.65;;;2.60;;
74541;SDS011;63015;45.378;20.360;2023-04-29T03:31:41;5.05;;;2.40;;
74541;SDS011;63015;45.378;20.360;2023-04-29T03:33:42;4.63;;;2.05;;
74541;SDS011;63015;45.378;20.360;2023-04-29T03:35:43;6.55;;;2.97;;
74541;SDS011;63015;45.378;20.360;2023-04-29T03:38:03;7.13;;;2.78;;
74541;SDS011;63015;45.378;20.360;2023-04-29T03:40:06;5.50;;;2.83;;
74541;SDS011;63015;45.378;20.360;2023-04-29T03:42:08;7.90;;;3.20;;
74541;SDS011;63015;45.378;20.360;2023-04-29T03:44:09;3.08;;;1.45;;
74541;SDS011;63015;45.378;20.360;2023-04-29T03:46:10;7.00;;;4.07;;
74541;SDS011;63015;45.378;20.360;2023-04-29T03:48:11;8.02;;;2.83;;
74541;SDS011;63015;45.378;20.360;2023-04-29T03:50:11;5.55;;;2.67;;
74541;SDS011;63015;45.378;20.360;2023-04-29T03:52:14;7.53;;;4.03;;
74541;SDS011;63015;45.378;20.360;2023-04-29T03:54:15;11.07;;;5.10;;
74541;SDS011;63015;45.378;20.360;2023-04-29T03:56:16;6.07;;;3.10;;
74541;SDS011;63015;45.378;20.360;2023-04-29T03:58:17;5.38;;;3.22;;
74541;SDS011;63015;45.378;20.360;2023-04-29T04:00:19;7.07;;;3.63;;
74541;SDS011;63015;45.378;20.360;2023-04-29T04:02:25;6.32;;;3.75;;
74541;SDS011;63015;45.378;20.360;2023-04-29T04:04:26;6.75;;;3.72;;
74541;SDS011;63015;45.378;20.360;2023-04-29T04:06:27;8.40;;;3.67;;
74541;SDS011;63015;45.378;20.360;2023-04-29T04:08:27;6.80;;;3.15;;
74541;SDS011;63015;45.378;20.360;2023-04-29T04:10:31;10.43;;;4.10;;
74541;SDS011;63015;45.378;20.360;2023-04-29T04:12:34;4.82;;;2.85;;
74541;SDS011;63015;45.378;20.360;2023-04-29T04:14:35;9.23;;;3.13;;
74541;SDS011;63015;45.378;20.360;2023-04-29T04:16:35;6.75;;;3.17;;
74541;SDS011;63015;45.378;20.360;2023-04-29T04:18:37;8.55;;;3.70;;
74541;SDS011;63015;45.378;20.360;2023-04-29T04:20:38;7.20;;;3.42;;
74541;SDS011;63015;45.378;20.360;2023-04-29T04:22:39;7.55;;;3.22;;
74541;SDS011;63015;45.378;20.360;2023-04-29T04:24:50;9.75;;;2.75;;
74541;SDS011;63015;45.378;20.360;2023-04-29T04:26:51;6.60;;;3.40;;
74541;SDS011;63015;45.378;20.360;2023-04-29T04:28:56;6.75;;;3.40;;
74541;SDS011;63015;45.378;20.360;2023-04-29T04:31:26;7.07;;;3.40;;
74541;SDS011;63015;45.378;20.360;2023-04-29T04:33:26;8.93;;;3.83;;
74541;SDS011;63015;45.378;20.360;2023-04-29T04:35:27;9.00;;;3.05;;
74541;SDS011;63015;45.378;20.360;2023-04-29T04:37:28;7.00;;;3.08;;
74541;SDS011;63015;45.378;20.360;2023-04-29T04:39:31;9.73;;;3.40;;
74541;SDS011;63015;45.378;20.360;2023-04-29T04:41:32;7.97;;;2.65;;
74541;SDS011;63015;45.378;20.360;2023-04-29T04:43:34;8.50;;;3.05;;
74541;SDS011;63015;45.378;20.360;2023-04-29T04:45:35;9.30;;;2.78;;
74541;SDS011;63015;45.378;20.360;2023-04-29T04:47:36;4.13;;;1.52;;
74541;SDS011;63015;45.378;20.360;2023-04-29T04:49:51;7.82;;;3.40;;
74541;SDS011;63015;45.378;20.360;2023-04-29T04:51:55;10.15;;;4.45;;
74541;SDS011;63015;45.378;20.360;2023-04-29T04:53:55;9.00;;;3.53;;
74541;SDS011;63015;45.378;20.360;2023-04-29T04:56:01;7.18;;;4.38;;
74541;SDS011;63015;45.378;20.360;2023-04-29T04:58:03;9.07;;;3.42;;
74541;SDS011;63015;45.378;20.360;2023-04-29T05:00:03;8.85;;;4.00;;
74541;SDS011;63015;45.378;20.360;2023-04-29T05:02:06;7.43;;;3.47;;
74541;SDS011;63015;45.378;20.360;2023-04-29T05:04:07;10.35;;;4.57;;
74541;SDS011;63015;45.378;20.360;2023-04-29T05:06:08;9.48;;;4.13;;
74541;SDS011;63015;45.378;20.360;2023-04-29T05:08:09;8.40;;;4.40;;
74541;SDS011;63015;45.378;20.360;2023-04-29T05:10:17;8.80;;;4.32;;
74541;SDS011;63015;45.378;20.360;2023-04-29T05:12:28;10.20;;;4.50;;
74541;SDS011;63015;45.378;20.360;2023-04-29T05:14:34;9.50;;;4.20;;
74541;SDS011;63015;45.378;20.360;2023-04-29T05:16:34;9.07;;;4.70;;
74541;SDS011;63015;45.378;20.360;2023-04-29T05:18:35;9.43;;;4.13;;
74541;SDS011;63015;45.378;20.360;2023-04-29T05:20:36;10.77;;;4.18;;
74541;SDS011;63015;45.378;20.360;2023-04-29T05:22:38;7.78;;;3.92;;
74541;SDS011;63015;45.378;20.360;2023-04-29T05:24:38;11.63;;;4.35;;
74541;SDS011;63015;45.378;20.360;2023-04-29T05:26:39;8.50;;;4.57;;
74541;SDS011;63015;45.378;20.360;2023-04-29T05:28:41;10.68;;;4.63;;
74541;SDS011;63015;45.378;20.360;2023-04-29T05:30:42;7.78;;;4.43;;
74541;SDS011;63015;45.378;20.360;2023-04-29T05:32:43;10.52;;;5.15;;
74541;SDS011;63015;45.378;20.360;2023-04-29T05:34:52;12.48;;;6.20;;
74541;SDS011;63015;45.378;20.360;2023-04-29T05:36:54;9.85;;;5.88;;
74541;SDS011;63015;45.378;20.360;2023-04-29T05:38:55;8.65;;;4.90;;
74541;SDS011;63015;45.378;20.360;2023-04-29T05:40:56;10.70;;;5.60;;
74541;SDS011;63015;45.378;20.360;2023-04-29T05:43:26;8.75;;;4.00;;
74541;SDS011;63015;45.378;20.360;2023-04-29T05:45:27;10.07;;;4.68;;
74541;SDS011;63015;45.378;20.360;2023-04-29T05:47:28;15.38;;;5.13;;
74541;SDS011;63015;45.378;20.360;2023-04-29T05:49:29;15.93;;;6.78;;
74541;SDS011;63015;45.378;20.360;2023-04-29T05:51:29;18.27;;;8.20;;
74541;SDS011;63015;45.378;20.360;2023-04-29T05:53:32;7.05;;;2.97;;
74541;SDS011;63015;45.378;20.360;2023-04-29T05:55:32;11.23;;;5.90;;
74541;SDS011;63015;45.378;20.360;2023-04-29T05:57:33;10.65;;;4.80;;
74541;SDS011;63015;45.378;20.360;2023-04-29T05:59:34;7.95;;;4.50;;
74541;SDS011;63015;45.378;20.360;2023-04-29T06:01:38;9.80;;;4.40;;
74541;SDS011;63015;45.378;20.360;2023-04-29T06:03:39;9.20;;;4.57;;
74541;SDS011;63015;45.378;20.360;2023-04-29T06:06:00;7.60;;;4.15;;
74541;SDS011;63015;45.378;20.360;2023-04-29T06:08:13;10.93;;;5.07;;
74541;SDS011;63015;45.378;20.360;2023-04-29T06:10:26;12.15;;;4.63;;
74541;SDS011;63015;45.378;20.360;2023-04-29T06:12:27;6.53;;;3.25;;
74541;SDS011;63015;45.378;20.360;2023-04-29T06:14:27;9.57;;;4.60;;
74541;SDS011;63015;45.378;20.360;2023-04-29T06:16:28;10.68;;;4.75;;
74541;SDS011;63015;45.378;20.360;2023-04-29T06:18:28;11.40;;;5.47;;
74541;SDS011;63015;45.378;20.360;2023-04-29T06:20:31;8.75;;;4.70;;
74541;SDS011;63015;45.378;20.360;2023-04-29T06:22:32;9.70;;;4.70;;
74541;SDS011;63015;45.378;20.360;2023-04-29T06:24:33;10.38;;;5.50;;
74541;SDS011;63015;45.378;20.360;2023-04-29T06:26:34;13.40;;;5.88;;
74541;SDS011;63015;45.378;20.360;2023-04-29T06:28:35;11.70;;;6.60;;
74541;SDS011;63015;45.378;20.360;2023-04-29T06:30:36;11.07;;;5.85;;
74541;SDS011;63015;45.378;20.360;2023-04-29T06:32:38;9.25;;;5.25;;
74541;SDS011;63015;45.378;20.360;2023-04-29T06:34:40;13.02;;;5.72;;
74541;SDS011;63015;45.378;20.360;2023-04-29T06:37:01;9.70;;;5.45;;
74541;SDS011;63015;45.378;20.360;2023-04-29T06:39:26;14.35;;;5.43;;
74541;SDS011;63015;45.378;20.360;2023-04-29T06:41:45;10.55;;;5.07;;
74541;SDS011;63015;45.378;20.360;2023-04-29T06:44:18;11.60;;;5.60;;
74541;SDS011;63015;45.378;20.360;2023-04-29T06:46:44;10.25;;;5.53;;
74541;SDS011;63015;45.378;20.360;2023-04-29T06:49:08;12.48;;;6.55;;
74541;SDS011;63015;45.378;20.360;2023-04-29T06:51:09;15.50;;;6.72;;
74541;SDS011;63015;45.378;20.360;2023-04-29T06:53:11;23.92;;;9.48;;
74541;SDS011;63015;45.378;20.360;2023-04-29T06:55:14;11.90;;;7.47;;
74541;SDS011;63015;45.378;20.360;2023-04-29T06:57:16;16.48;;;8.27;;
74541;SDS011;63015;45.378;20.360;2023-04-29T06:59:19;12.15;;;6.75;;
74541;SDS011;63015;45.378;20.360;2023-04-29T07:01:20;14.45;;;5.82;;
74541;SDS011;63015;45.378;20.360;2023-04-29T07:03:21;10.23;;;5.10;;
74541;SDS011;63015;45.378;20.360;2023-04-29T07:05:22;11.40;;;5.95;;
74541;SDS011;63015;45.378;20.360;2023-04-29T07:07:22;12.00;;;5.75;;
74541;SDS011;63015;45.378;20.360;2023-04-29T07:09:24;7.57;;;4.07;;
74541;SDS011;63015;45.378;20.360;2023-04-29T07:11:26;10.05;;;4.30;;
74541;SDS011;63015;45.378;20.360;2023-04-29T07:13:27;9.52;;;3.95;;
74541;SDS011;63015;45.378;20.360;2023-04-29T07:15:28;8.57;;;3.60;;
74541;SDS011;63015;45.378;20.360;2023-04-29T07:17:29;11.50;;;4.82;;
74541;SDS011;63015;45.378;20.360;2023-04-29T07:19:31;8.73;;;4.18;;
74541;SDS011;63015;45.378;20.360;2023-04-29T07:21:31;8.55;;;5.25;;
74541;SDS011;63015;45.378;20.360;2023-04-29T07:23:32;8.73;;;3.95;;
74541;SDS011;63015;45.378;20.360;2023-04-29T07:25:33;8.98;;;5.07;;
74541;SDS011;63015;45.378;20.360;2023-04-29T07:27:34;9.73;;;4.60;;
74541;SDS011;63015;45.378;20.360;2023-04-29T07:29:35;10.40;;;4.68;;
74541;SDS011;63015;45.378;20.360;2023-04-29T07:31:37;11.43;;;4.40;;
74541;SDS011;63015;45.378;20.360;2023-04-29T07:33:38;9.65;;;4.07;;
74541;SDS011;63015;45.378;20.360;2023-04-29T07:35:39;9.20;;;4.05;;
74541;SDS011;63015;45.378;20.360;2023-04-29T07:37:42;11.43;;;3.92;;
74541;SDS011;63015;45.378;20.360;2023-04-29T07:39:45;12.15;;;4.22;;
74541;SDS011;63015;45.378;20.360;2023-04-29T07:41:46;10.88;;;5.25;;
74541;SDS011;63015;45.378;20.360;2023-04-29T07:43:47;11.00;;;4.72;;
74541;SDS011;63015;45.378;20.360;2023-04-29T07:45:47;9.80;;;4.80;;
74541;SDS011;63015;45.378;20.360;2023-04-29T07:47:49;8.23;;;3.80;;
74541;SDS011;63015;45.378;20.360;2023-04-29T07:49:49;7.65;;;4.22;;
74541;SDS011;63015;45.378;20.360;2023-04-29T07:51:50;9.68;;;4.45;;
74541;SDS011;63015;45.378;20.360;2023-04-29T07:53:51;8.43;;;5.15;;
74541;SDS011;63015;45.378;20.360;2023-04-29T07:55:51;9.00;;;4.25;;
74541;SDS011;63015;45.378;20.360;2023-04-29T07:57:54;9.05;;;4.40;;
74541;SDS011;63015;45.378;20.360;2023-04-29T07:59:56;8.35;;;4.40;;
74541;SDS011;63015;45.378;20.360;2023-04-29T08:01:56;9.48;;;4.78;;
74541;SDS011;63015;45.378;20.360;2023-04-29T08:03:57;7.82;;;4.20;;
74541;SDS011;63015;45.378;20.360;2023-04-29T08:06:00;8.23;;;4.53;;
74541;SDS011;63015;45.378;20.360;2023-04-29T08:08:02;6.90;;;3.80;;
74541;SDS011;63015;45.378;20.360;2023-04-29T08:10:03;8.57;;;3.08;;
74541;SDS011;63015;45.378;20.360;2023-04-29T08:12:04;7.70;;;3.72;;
74541;SDS011;63015;45.378;20.360;2023-04-29T08:14:05;6.93;;;3.05;;
74541;SDS011;63015;45.378;20.360;2023-04-29T08:16:06;10.52;;;3.53;;
74541;SDS011;63015;45.378;20.360;2023-04-29T08:18:08;8.75;;;4.20;;
74541;SDS011;63015;45.378;20.360;2023-04-29T08:20:09;11.00;;;4.30;;
74541;SDS011;63015;45.378;20.360;2023-04-29T08:22:10;7.93;;;4.05;;
74541;SDS011;63015;45.378;20.360;2023-04-29T08:24:11;11.77;;;4.80;;
74541;SDS011;63015;45.378;20.360;2023-04-29T08:26:12;6.55;;;3.40;;
74541;SDS011;63015;45.378;20.360;2023-04-29T08:28:13;7.60;;;2.83;;
74541;SDS011;63015;45.378;20.360;2023-04-29T08:30:14;8.98;;;3.28;;
74541;SDS011;63015;45.378;20.360;2023-04-29T08:32:14;10.57;;;4.78;;
74541;SDS011;63015;45.378;20.360;2023-04-29T08:34:15;13.98;;;4.40;;
74541;SDS011;63015;45.378;20.360;2023-04-29T08:36:15;9.35;;;4.07;;
74541;SDS011;63015;45.378;20.360;2023-04-29T08:38:16;9.18;;;4.35;;
74541;SDS011;63015;45.378;20.360;2023-04-29T08:40:17;7.13;;;2.60;;
74541;SDS011;63015;45.378;20.360;2023-04-29T08:42:18;9.25;;;4.40;;
74541;SDS011;63015;45.378;20.360;2023-04-29T08:44:30;7.88;;;3.40;;
74541;SDS011;63015;45.378;20.360;2023-04-29T08:46:33;6.88;;;4.43;;
74541;SDS011;63015;45.378;20.360;2023-04-29T08:48:33;7.00;;;3.40;;
74541;SDS011;63015;45.378;20.360;2023-04-29T08:50:40;9.27;;;3.25;;
74541;SDS011;63015;45.378;20.360;2023-04-29T08:52:41;7.60;;;4.05;;
74541;SDS011;63015;45.378;20.360;2023-04-29T08:54:42;7.38;;;3.80;;
74541;SDS011;63015;45.378;20.360;2023-04-29T08:56:44;10.55;;;3.50;;
74541;SDS011;63015;45.378;20.360;2023-04-29T08:58:46;6.65;;;4.20;;
74541;SDS011;63015;45.378;20.360;2023-04-29T09:00:51;9.30;;;4.68;;
74541;SDS011;63015;45.378;20.360;2023-04-29T09:02:52;6.97;;;3.72;;
74541;SDS011;63015;45.378;20.360;2023-04-29T09:07:08;7.78;;;3.67;;
74541;SDS011;63015;45.378;20.360;2023-04-29T09:09:11;7.85;;;3.50;;
74541;SDS011;63015;45.378;20.360;2023-04-29T09:11:14;8.00;;;3.53;;
74541;SDS011;63015;45.378;20.360;2023-04-29T09:13:22;7.20;;;3.35;;
74541;SDS011;63015;45.378;20.360;2023-04-29T09:15:24;5.95;;;2.60;;
74541;SDS011;63015;45.378;20.360;2023-04-29T09:19:42;6.38;;;3.10;;
74541;SDS011;63015;45.378;20.360;2023-04-29T09:21:44;5.95;;;3.05;;
74541;SDS011;63015;45.378;20.360;2023-04-29T09:24:01;6.45;;;2.78;;
74541;SDS011;63015;45.378;20.360;2023-04-29T09:26:02;10.05;;;3.45;;
74541;SDS011;63015;45.378;20.360;2023-04-29T09:28:15;7.68;;;3.75;;
74541;SDS011;63015;45.378;20.360;2023-04-29T09:30:18;7.38;;;3.55;;
74541;SDS011;63015;45.378;20.360;2023-04-29T09:32:20;5.65;;;2.75;;
74541;SDS011;63015;45.378;20.360;2023-04-29T09:34:33;6.00;;;2.70;;
74541;SDS011;63015;45.378;20.360;2023-04-29T09:38:43;4.82;;;2.50;;
74541;SDS011;63015;45.378;20.360;2023-04-29T09:40:54;9.27;;;3.38;;
74541;SDS011;63015;45.378;20.360;2023-04-29T09:42:55;5.32;;;2.60;;
74541;SDS011;63015;45.378;20.360;2023-04-29T09:44:56;6.93;;;3.00;;
74541;SDS011;63015;45.378;20.360;2023-04-29T09:46:58;8.25;;;3.17;;
74541;SDS011;63015;45.378;20.360;2023-04-29T09:49:02;4.00;;;1.98;;
74541;SDS011;63015;45.378;20.360;2023-04-29T09:51:06;10.73;;;2.70;;
74541;SDS011;63015;45.378;20.360;2023-04-29T09:53:08;8.30;;;2.70;;
74541;SDS011;63015;45.378;20.360;2023-04-29T09:57:11;7.47;;;3.33;;
74541;SDS011;63015;45.378;20.360;2023-04-29T09:59:14;8.27;;;3.13;;
74541;SDS011;63015;45.378;20.360;2023-04-29T10:01:15;6.45;;;2.88;;
74541;SDS011;63015;45.378;20.360;2023-04-29T10:03:20;6.07;;;2.38;;
74541;SDS011;63015;45.378;20.360;2023-04-29T10:05:21;6.68;;;2.63;;
74541;SDS011;63015;45.378;20.360;2023-04-29T10:07:22;5.45;;;3.17;;
74541;SDS011;63015;45.378;20.360;2023-04-29T10:09:25;4.95;;;2.70;;
74541;SDS011;63015;45.378;20.360;2023-04-29T10:11:26;7.50;;;2.60;;
74541;SDS011;63015;45.378;20.360;2023-04-29T10:13:27;6.85;;;2.50;;
74541;SDS011;63015;45.378;20.360;2023-04-29T10:15:31;5.78;;;2.38;;
74541;SDS011;63015;45.378;20.360;2023-04-29T10:17:45;6.72;;;2.60;;
74541;SDS011;63015;45.378;20.360;2023-04-29T10:19:53;4.90;;;2.17;;
74541;SDS011;63015;45.378;20.360;2023-04-29T10:22:04;6.15;;;1.90;;
74541;SDS011;63015;45.378;20.360;2023-04-29T10:24:26;6.03;;;2.33;;
74541;SDS011;63015;45.378;20.360;2023-04-29T10:26:27;6.85;;;2.53;;
74541;SDS011;63015;45.378;20.360;2023-04-29T10:28:32;5.38;;;2.28;;
74541;SDS011;63015;45.378;20.360;2023-04-29T10:30:32;5.55;;;1.88;;
74541;SDS011;63015;45.378;20.360;2023-04-29T10:32:34;5.55;;;2.05;;
74541;SDS011;63015;45.378;20.360;2023-04-29T10:34:37;5.20;;;1.70;;
74541;SDS011;63015;45.378;20.360;2023-04-29T10:36:40;6.45;;;2.65;;
74541;SDS011;63015;45.378;20.360;2023-04-29T10:38:43;4.80;;;2.50;;
74541;SDS011;63015;45.378;20.360;2023-04-29T10:40:47;5.57;;;2.08;;
74541;SDS011;63015;45.378;20.360;2023-04-29T10:42:51;7.10;;;2.42;;
74541;SDS011;63015;45.378;20.360;2023-04-29T10:45:38;5.32;;;2.15;;
74541;SDS011;63015;45.378;20.360;2023-04-29T10:47:19;6.20;;;2.33;;
74541;SDS011;63015;45.378;20.360;2023-04-29T10:49:20;7.28;;;2.25;;
74541;SDS011;63015;45.378;20.360;2023-04-29T10:53:57;6.40;;;1.63;;
74541;SDS011;63015;45.378;20.360;2023-04-29T10:56:07;4.60;;;2.00;;
74541;SDS011;63015;45.378;20.360;2023-04-29T11:00:55;5.00;;;1.67;;
74541;SDS011;63015;45.378;20.360;2023-04-29T11:02:59;5.57;;;1.70;;
74541;SDS011;63015;45.378;20.360;2023-04-29T11:07:09;4.97;;;1.75;;
74541;SDS011;63015;45.378;20.360;2023-04-29T11:09:27;4.20;;;1.80;;
74541;SDS011;63015;45.378;20.360;2023-04-29T11:11:42;4.50;;;1.65;;
74541;SDS011;63015;45.378;20.360;2023-04-29T11:13:51;3.22;;;1.20;;
74541;SDS011;63015;45.378;20.360;2023-04-29T11:15:52;5.28;;;1.45;;
74541;SDS011;63015;45.378;20.360;2023-04-29T11:17:56;5.18;;;1.40;;
74541;SDS011;63015;45.378;20.360;2023-04-29T11:19:58;3.25;;;1.08;;
74541;SDS011;63015;45.378;20.360;2023-04-29T11:24:20;4.05;;;1.73;;
74541;SDS011;63015;45.378;20.360;2023-04-29T11:26:21;4.60;;;1.60;;
74541;SDS011;63015;45.378;20.360;2023-04-29T11:28:23;3.85;;;1.38;;
74541;SDS011;63015;45.378;20.360;2023-04-29T11:30:24;4.68;;;1.38;;
74541;SDS011;63015;45.378;20.360;2023-04-29T11:32:28;4.25;;;1.27;;
74541;SDS011;63015;45.378;20.360;2023-04-29T11:34:33;4.28;;;1.48;;
74541;SDS011;63015;45.378;20.360;2023-04-29T11:36:33;3.20;;;1.40;;
74541;SDS011;63015;45.378;20.360;2023-04-29T11:38:38;3.97;;;1.60;;
74541;SDS011;63015;45.378;20.360;2023-04-29T11:40:48;5.43;;;1.60;;
74541;SDS011;63015;45.378;20.360;2023-04-29T11:42:49;6.13;;;1.70;;
74541;SDS011;63015;45.378;20.360;2023-04-29T11:44:50;6.95;;;2.10;;
74541;SDS011;63015;45.378;20.360;2023-04-29T11:46:52;4.53;;;1.70;;
74541;SDS011;63015;45.378;20.360;2023-04-29T11:48:53;3.47;;;1.45;;
74541;SDS011;63015;45.378;20.360;2023-04-29T11:50:57;5.72;;;1.70;;
74541;SDS011;63015;45.378;20.360;2023-04-29T11:52:59;4.80;;;1.40;;
74541;SDS011;63015;45.378;20.360;2023-04-29T11:55:00;5.35;;;2.10;;
74541;SDS011;63015;45.378;20.360;2023-04-29T11:57:01;4.13;;;1.83;;
74541;SDS011;63015;45.378;20.360;2023-04-29T11:59:05;4.50;;;1.52;;
74541;SDS011;63015;45.378;20.360;2023-04-29T12:01:07;4.72;;;1.30;;
74541;SDS011;63015;45.378;20.360;2023-04-29T12:03:14;4.60;;;1.25;;
74541;SDS011;63015;45.378;20.360;2023-04-29T12:05:18;6.45;;;1.35;;
74541;SDS011;63015;45.378;20.360;2023-04-29T12:07:19;4.03;;;1.25;;
74541;SDS011;63015;45.378;20.360;2023-04-29T12:09:20;5.13;;;1.30;;
74541;SDS011;63015;45.378;20.360;2023-04-29T12:11:21;4.32;;;1.48;;
74541;SDS011;63015;45.378;20.360;2023-04-29T12:13:26;5.82;;;1.50;;
74541;SDS011;63015;45.378;20.360;2023-04-29T12:15:29;3.88;;;1.42;;
74541;SDS011;63015;45.378;20.360;2023-04-29T12:17:30;4.70;;;1.42;;
74541;SDS011;63015;45.378;20.360;2023-04-29T12:19:31;4.93;;;1.70;;
74541;SDS011;63015;45.378;20.360;2023-04-29T12:21:34;4.88;;;1.77;;
74541;SDS011;63015;45.378;20.360;2023-04-29T12:23:34;3.75;;;1.42;;
74541;SDS011;63015;45.378;20.360;2023-04-29T12:25:35;3.63;;;1.30;;
74541;SDS011;63015;45.378;20.360;2023-04-29T12:27:38;5.05;;;1.50;;
74541;SDS011;63015;45.378;20.360;2023-04-29T12:29:41;4.22;;;1.30;;
74541;SDS011;63015;45.378;20.360;2023-04-29T12:31:41;4.90;;;1.30;;
74541;SDS011;63015;45.378;20.360;2023-04-29T12:33:42;3.70;;;1.30;;
74541;SDS011;63015;45.378;20.360;2023-04-29T12:35:43;3.92;;;1.42;;
74541;SDS011;63015;45.378;20.360;2023-04-29T12:37:47;4.10;;;1.40;;
74541;SDS011;63015;45.378;20.360;2023-04-29T12:39:53;3.20;;;1.33;;
74541;SDS011;63015;45.378;20.360;2023-04-29T12:41:57;3.90;;;1.33;;